createdAt,value
2019-02-08T00:01:06.103Z,95386.67
2019-02-08T00:07:10.492Z,95388.14
2019-02-08T00:09:41.883Z,95391.54
2019-02-08T00:12:13.138Z,95385.58
2019-02-08T00:14:44.989Z,95387.52
2019-02-08T00:17:16.478Z,95389.69
2019-02-08T00:19:48.267Z,95386.10
2019-02-08T00:22:19.976Z,95383.92
2019-02-08T00:24:51.526Z,95377.13
2019-02-08T00:27:23.990Z,95372.71
2019-02-08T00:29:55.786Z,95375.45
2019-02-08T00:32:27.591Z,95380.80
2019-02-08T00:34:59.644Z,95382.08
2019-02-08T00:37:31.294Z,95377.30
2019-02-08T00:40:02.978Z,95372.06
2019-02-08T00:42:34.877Z,95372.27
2019-02-08T00:45:07.792Z,95368.86
2019-02-08T00:47:39.759Z,95377.86
2019-02-08T00:50:14.817Z,95369.69
2019-02-08T00:52:47.654Z,95377.11
2019-02-08T00:55:20.107Z,95371.60
2019-02-08T00:57:51.854Z,95373.52
2019-02-08T01:00:24.426Z,95374.80
2019-02-08T01:02:56.796Z,95373.34
2019-02-08T01:05:28.818Z,95362.05
2019-02-08T01:08:01.481Z,95357.66
2019-02-08T01:10:33.942Z,95360.14
2019-02-08T01:13:05.637Z,95351.14
2019-02-08T01:15:37.142Z,95355.45
2019-02-08T01:18:08.911Z,95357.17
2019-02-08T01:20:40.339Z,95360.03
2019-02-08T01:23:11.761Z,95359.73
2019-02-08T01:25:43.695Z,95353.41
2019-02-08T01:28:15.363Z,95358.75
2019-02-08T01:30:47.295Z,95359.77
2019-02-08T01:33:18.729Z,95352.16
2019-02-08T01:35:50.454Z,95356.18
2019-02-08T01:38:21.967Z,95357.27
2019-02-08T01:40:53.693Z,95354.34
2019-02-08T01:43:25.173Z,95353.05
2019-02-08T01:45:56.868Z,95352.33
2019-02-08T01:48:28.292Z,95354.34
2019-02-08T01:51:00.061Z,95352.05
2019-02-08T01:53:31.448Z,95344.99
2019-02-08T01:56:02.993Z,95351.43
2019-02-08T01:58:34.459Z,95353.61
2019-02-08T02:01:06.547Z,95353.61
2019-02-08T02:03:38.030Z,95360.03
2019-02-08T02:06:09.554Z,95359.28
2019-02-08T02:08:41.073Z,95354.08
2019-02-08T02:11:12.483Z,95353.25
2019-02-08T02:13:44.139Z,95358.85
2019-02-08T02:16:15.458Z,95357.38
2019-02-08T02:18:46.773Z,95349.76
2019-02-08T02:21:18.331Z,95355.72
2019-02-08T02:23:56.037Z,95349.30
2019-02-08T02:26:23.397Z,95346.83
2019-02-08T02:28:55.092Z,95344.81
2019-02-08T02:31:26.485Z,95346.89
2019-02-08T02:33:57.927Z,95338.82
2019-02-08T02:36:29.628Z,95337.54
2019-02-08T02:39:01.210Z,95333.69
2019-02-08T02:41:34.174Z,95339.65
2019-02-08T02:44:05.791Z,95334.67
2019-02-08T02:46:37.284Z,95340.56
2019-02-08T02:49:08.736Z,95340.73
2019-02-08T02:51:40.253Z,95341.00
2019-02-08T02:54:11.879Z,95336.98
2019-02-08T02:56:43.431Z,95337.83
2019-02-08T02:59:14.204Z,95332.39
2019-02-08T03:01:45.877Z,95325.78
2019-02-08T03:04:17.479Z,95330.45
2019-02-08T03:06:49.058Z,95322.67
2019-02-08T03:09:20.888Z,95317.09
2019-02-08T03:11:52.486Z,95320.75
2019-02-08T03:14:24.038Z,95321.03
2019-02-08T03:16:56.806Z,95318.55
2019-02-08T03:19:28.430Z,95312.48
2019-02-08T03:22:00.049Z,95308.55
2019-02-08T03:24:31.642Z,95313.42
2019-02-08T03:27:03.122Z,95313.05
2019-02-08T03:29:34.465Z,95304.03
2019-02-08T03:32:06.217Z,95306.81
2019-02-08T03:34:37.796Z,95299.27
2019-02-08T03:37:09.522Z,95293.59
2019-02-08T03:39:41.286Z,95292.46
2019-02-08T03:42:12.885Z,95291.00
2019-02-08T03:44:44.809Z,95278.34
2019-02-08T03:47:16.137Z,95283.47
2019-02-08T03:49:47.558Z,95281.08
2019-02-08T03:52:19.165Z,95273.20
2019-02-08T03:54:50.916Z,95279.45
2019-02-08T03:57:22.295Z,95279.08
2019-02-08T03:59:53.852Z,95277.50
2019-02-08T04:02:25.611Z,95274.94
2019-02-08T04:04:57.425Z,95272.27
2019-02-08T04:07:28.921Z,95270.97
2019-02-08T04:10:00.562Z,95269.91
2019-02-08T04:12:32.314Z,95275.33
2019-02-08T04:15:04.888Z,95268.70
2019-02-08T04:17:36.574Z,95270.17
2019-02-08T04:20:09.069Z,95263.94
2019-02-08T04:22:40.650Z,95262.83
2019-02-08T04:25:12.752Z,95261.45
2019-02-08T04:27:44.320Z,95265.13
2019-02-08T04:30:19.265Z,95262.09
2019-02-08T04:32:50.867Z,95258.81
2019-02-08T04:35:22.511Z,95269.64
2019-02-08T04:37:54.107Z,95270.80
2019-02-08T04:40:25.557Z,95272.28
2019-02-08T04:42:57.297Z,95279.44
2019-02-08T04:45:28.919Z,95280.72
2019-02-08T04:48:00.280Z,95277.99
2019-02-08T04:50:31.757Z,95280.83
2019-02-08T04:53:03.410Z,95283.13
2019-02-08T04:55:34.817Z,95282.86
2019-02-08T04:58:06.302Z,95285.30
2019-02-08T05:00:38.437Z,95287.25
2019-02-08T05:03:09.857Z,95286.42
2019-02-08T05:05:41.185Z,95289.27
2019-02-08T05:08:12.673Z,95292.20
2019-02-08T05:10:44.022Z,95289.64
2019-02-08T05:13:15.451Z,95289.80
2019-02-08T05:15:46.802Z,95289.72
2019-02-08T05:18:18.198Z,95298.06
2019-02-08T05:20:49.640Z,95304.78
2019-02-08T05:23:20.909Z,95311.74
2019-02-08T05:25:52.488Z,95315.41
2019-02-08T05:28:24.013Z,95316.78
2019-02-08T05:30:55.215Z,95315.50
2019-02-08T05:33:26.586Z,95315.70
2019-02-08T05:35:58.132Z,95324.20
2019-02-08T05:38:29.612Z,95324.49
2019-02-08T05:41:01.172Z,95319.55
2019-02-08T05:43:32.775Z,95327.45
2019-02-08T05:46:06.674Z,95324.23
2019-02-08T05:48:38.150Z,95327.91
2019-02-08T05:51:09.652Z,95327.72
2019-02-08T05:53:41.325Z,95330.09
2019-02-08T05:56:12.533Z,95324.39
2019-02-08T05:58:44.161Z,95330.29
2019-02-08T06:01:15.899Z,95329.34
2019-02-08T06:03:47.340Z,95334.83
2019-02-08T06:06:18.557Z,95337.34
2019-02-08T06:08:49.909Z,95334.99
2019-02-08T06:11:21.342Z,95332.36
2019-02-08T06:13:53.094Z,95335.75
2019-02-08T06:16:24.478Z,95330.25
2019-02-08T06:18:56.153Z,95333.75
2019-02-08T06:21:27.507Z,95335.39
2019-02-08T06:23:59.027Z,95336.12
2019-02-08T06:26:30.554Z,95340.63
2019-02-08T06:29:02.297Z,95347.41
2019-02-08T06:31:33.876Z,95349.22
2019-02-08T06:34:05.714Z,95352.08
2019-02-08T06:36:37.208Z,95354.39
2019-02-08T06:39:11.402Z,95355.94
2019-02-08T06:41:42.895Z,95348.75
2019-02-08T06:44:14.739Z,95352.71
2019-02-08T06:46:46.312Z,95355.48
2019-02-08T06:49:18.006Z,95349.16
2019-02-08T06:51:49.301Z,95350.44
2019-02-08T06:54:21.041Z,95347.67
2019-02-08T06:57:05.045Z,95346.70
2019-02-08T06:59:43.259Z,95348.44
2019-02-08T07:02:26.160Z,95347.98
2019-02-08T07:05:25.736Z,95347.52
2019-02-08T07:08:13.482Z,95342.14
2019-02-08T07:10:52.954Z,95342.12
2019-02-08T07:13:47.543Z,95343.77
2019-02-08T07:16:47.067Z,95346.63
2019-02-08T07:19:32.173Z,95347.28
2019-02-08T07:22:11.538Z,95348.66
2019-02-08T07:25:02.287Z,95350.31
2019-02-08T07:27:40.460Z,95354.17
2019-02-08T07:30:36.379Z,95355.62
2019-02-08T07:33:35.806Z,95354.80
2019-02-08T07:36:26.079Z,95360.13
2019-02-08T07:39:16.554Z,95360.56
2019-02-08T07:41:57.696Z,95365.61
2019-02-08T07:44:40.894Z,95366.99
2019-02-08T07:47:34.462Z,95377.67
2019-02-08T07:50:28.747Z,95379.31
2019-02-08T07:53:25.150Z,95380.50
2019-02-08T07:56:18.456Z,95383.73
2019-02-08T07:59:00.545Z,95376.38
2019-02-08T08:01:57.095Z,95376.38
2019-02-08T08:04:52.193Z,95377.66
2019-02-08T08:07:48.936Z,95380.98
2019-02-08T08:10:39.535Z,95381.45
2019-02-08T08:13:24.912Z,95385.77
2019-02-08T08:16:21.249Z,95378.88
2019-02-08T08:19:16.088Z,95385.57
2019-02-08T08:21:56.441Z,95382.28
2019-02-08T08:24:59.490Z,95379.61
2019-02-08T08:27:50.524Z,95384.66
2019-02-08T08:30:45.671Z,95380.44
2019-02-08T08:33:29.167Z,95390.92
2019-02-08T08:36:33.606Z,95385.22
2019-02-08T08:39:44.303Z,95386.86
2019-02-08T08:42:58.726Z,95392.75
2019-02-08T08:46:03.282Z,95380.71
2019-02-08T08:49:08.844Z,95384.84
2019-02-08T08:52:19.007Z,95385.92
2019-02-08T08:55:41.787Z,95389.42
2019-02-08T08:58:47.025Z,95391.83
2019-02-08T09:01:58.129Z,95389.68
2019-02-08T09:05:05.828Z,95404.13
2019-02-08T09:08:13.820Z,95403.03
2019-02-08T09:11:24.125Z,95407.63
2019-02-08T09:14:32.288Z,95410.75
2019-02-08T09:17:32.259Z,95410.95
2019-02-08T09:20:46.364Z,95407.35
2019-02-08T09:23:56.473Z,95412.86
2019-02-08T09:27:11.389Z,95414.59
2019-02-08T09:30:17.750Z,95413.94
2019-02-08T09:33:28.964Z,95411.47
2019-02-08T09:36:47.407Z,95401.74
2019-02-08T09:39:56.721Z,95403.67
2019-02-08T09:43:23.777Z,95400.74
2019-02-08T09:46:38.904Z,95399.24
2019-02-08T09:49:40.728Z,95400.42
2019-02-08T09:52:47.391Z,95401.75
2019-02-08T09:55:57.895Z,95401.14
2019-02-08T09:59:26.314Z,95394.56
2019-02-08T10:02:33.651Z,95388.91
2019-02-08T10:05:40.911Z,95399.82
2019-02-08T10:09:00.552Z,95394.27
2019-02-08T10:12:32.335Z,95391.45
2019-02-08T10:15:34.758Z,95397.09
2019-02-08T10:18:58.629Z,95392.19
2019-02-08T10:21:57.348Z,95394.30
2019-02-08T10:25:18.531Z,95396.70
2019-02-08T10:28:51.428Z,95397.06
2019-02-08T10:31:53.603Z,95394.92
2019-02-08T10:35:11.431Z,95393.55
2019-02-08T10:38:16.288Z,95397.42
2019-02-08T10:41:30.722Z,95403.19
2019-02-08T10:44:59.194Z,95396.09
2019-02-08T10:48:32.170Z,95395.70
2019-02-08T10:51:55.576Z,95394.45
2019-02-08T10:55:01.328Z,95391.66
2019-02-08T10:58:13.932Z,95386.37
2019-02-08T11:01:41.527Z,95385.44
2019-02-08T11:05:03.205Z,95384.00
2019-02-08T11:08:21.180Z,95382.92
2019-02-08T11:11:41.884Z,95383.97
2019-02-08T11:14:48.699Z,95378.71
2019-02-08T11:18:00.910Z,95384.41
2019-02-08T11:20:32.688Z,95383.47
2019-02-08T11:23:04.196Z,95379.92
2019-02-08T11:25:35.902Z,95378.17
2019-02-08T11:28:07.695Z,95372.63
2019-02-08T11:30:39.605Z,95375.86
2019-02-08T11:33:11.282Z,95375.39
2019-02-08T11:35:42.753Z,95377.33
2019-02-08T11:38:14.273Z,95372.75
2019-02-08T11:40:45.870Z,95366.19
2019-02-08T11:43:17.749Z,95367.12
2019-02-08T11:45:49.246Z,95367.86
2019-02-08T11:51:03.150Z,95371.40
2019-02-08T11:53:39.000Z,95374.43
2019-02-08T11:56:10.923Z,95377.78
2019-02-08T11:58:42.607Z,95379.98
2019-02-08T12:01:13.969Z,95376.24
2019-02-08T12:03:45.803Z,95375.37
2019-02-08T12:06:17.288Z,95371.84
2019-02-08T12:08:48.732Z,95369.02
2019-02-08T12:11:20.460Z,95369.27
2019-02-08T12:13:51.903Z,95367.33
2019-02-08T12:16:23.412Z,95366.27
2019-02-08T12:18:56.094Z,95362.36
2019-02-08T12:21:27.821Z,95360.14
2019-02-08T12:23:59.503Z,95363.42
2019-02-08T12:26:37.657Z,95365.77
2019-02-08T12:29:05.104Z,95366.99
2019-02-08T12:31:36.994Z,95367.58
2019-02-08T12:34:09.273Z,95364.70
2019-02-08T12:36:41.083Z,95371.21
2019-02-08T12:39:13.255Z,95360.97
2019-02-08T12:41:44.866Z,95364.54
2019-02-08T12:44:17.394Z,95363.72
2019-02-08T12:46:49.228Z,95365.53
2019-02-08T12:49:20.986Z,95366.13
2019-02-08T12:51:52.654Z,95365.81
2019-02-08T12:54:24.495Z,95361.68
2019-02-08T12:56:56.373Z,95358.03
2019-02-08T12:59:28.131Z,95366.70
2019-02-08T13:01:59.801Z,95367.34
2019-02-08T13:04:32.731Z,95372.86
2019-02-08T13:07:04.363Z,95372.31
2019-02-08T13:09:36.031Z,95369.98
2019-02-08T13:12:07.710Z,95365.36
2019-02-08T13:14:40.127Z,95362.95
2019-02-08T13:17:11.509Z,95372.31
2019-02-08T13:19:42.993Z,95370.64
2019-02-08T13:22:14.667Z,95365.88
2019-02-08T13:24:46.579Z,95363.72
2019-02-08T13:27:18.346Z,95366.54
2019-02-08T13:29:50.133Z,95360.95
2019-02-08T13:32:22.871Z,95370.92
2019-02-08T13:34:54.494Z,95372.11
2019-02-08T13:37:25.803Z,95368.82
2019-02-08T13:39:57.214Z,95373.08
2019-02-08T13:42:29.033Z,95371.44
2019-02-08T13:45:00.639Z,95369.38
2019-02-08T13:47:32.475Z,95369.80
2019-02-08T13:50:05.215Z,95360.19
2019-02-08T13:52:36.727Z,95363.95
2019-02-08T13:55:08.868Z,95361.09
2019-02-08T13:57:40.559Z,95354.65
2019-02-08T14:00:16.508Z,95357.05
2019-02-08T14:02:48.623Z,95359.11
2019-02-08T14:05:20.329Z,95357.23
2019-02-08T14:07:51.998Z,95355.17
2019-02-08T14:10:23.686Z,95356.59
2019-02-08T14:12:55.533Z,95358.27
2019-02-08T14:15:27.578Z,95357.69
2019-02-08T14:17:59.293Z,95358.52
2019-02-08T14:20:31.135Z,95357.02
2019-02-08T14:23:02.805Z,95352.05
2019-02-08T14:25:34.312Z,95365.55
2019-02-08T14:28:06.012Z,95362.91
2019-02-08T14:30:39.658Z,95367.86
2019-02-08T14:33:11.266Z,95366.46
2019-02-08T14:35:42.858Z,95368.34
2019-02-08T14:38:18.827Z,95373.55
2019-02-08T14:40:50.509Z,95373.16
2019-02-08T14:43:22.246Z,95369.29
2019-02-08T14:45:53.767Z,95374.61
2019-02-08T14:48:25.352Z,95382.41
2019-02-08T14:50:57.022Z,95381.34
2019-02-08T14:53:28.453Z,95375.95
2019-02-08T14:56:00.034Z,95375.41
2019-02-08T14:58:31.502Z,95372.88
2019-02-08T15:01:02.927Z,95376.21
2019-02-08T15:03:34.364Z,95367.55
2019-02-08T15:06:05.958Z,95367.44
2019-02-08T15:08:37.234Z,95369.02
2019-02-08T15:11:09.000Z,95372.17
2019-02-08T15:13:40.325Z,95371.70
2019-02-08T15:16:11.870Z,95369.48
2019-02-08T15:18:43.187Z,95372.41
2019-02-08T15:21:14.431Z,95374.83
2019-02-08T15:23:46.161Z,95371.55
2019-02-08T15:26:17.830Z,95367.70
2019-02-08T15:28:49.412Z,95371.15
2019-02-08T15:31:21.179Z,95378.74
2019-02-08T15:33:52.762Z,95375.56
2019-02-08T15:36:24.452Z,95378.50
2019-02-08T15:38:55.817Z,95381.03
2019-02-08T15:41:27.436Z,95383.25
2019-02-08T15:43:59.106Z,95378.00
2019-02-08T15:46:30.601Z,95388.02
2019-02-08T15:49:02.273Z,95387.27
2019-02-08T15:51:33.924Z,95388.23
2019-02-08T15:54:05.281Z,95390.23
2019-02-08T15:56:37.904Z,95389.84
2019-02-08T15:59:09.656Z,95383.87
2019-02-08T16:01:41.466Z,95389.55
2019-02-08T16:04:12.977Z,95394.70
2019-02-08T16:06:44.640Z,95392.13
2019-02-08T16:09:15.956Z,95390.88
2019-02-08T16:11:47.468Z,95393.98
2019-02-08T16:14:19.104Z,95393.91
2019-02-08T16:16:50.690Z,95399.53
2019-02-08T16:19:22.233Z,95399.24
2019-02-08T16:21:53.988Z,95400.32
2019-02-08T16:24:25.593Z,95411.73
2019-02-08T16:26:57.324Z,95415.23
2019-02-08T16:29:28.999Z,95411.78
2019-02-08T16:32:00.775Z,95414.46
2019-02-08T16:34:32.817Z,95421.92
2019-02-08T16:37:04.652Z,95417.68
2019-02-08T16:39:36.132Z,95421.92
2019-02-08T16:42:07.855Z,95423.69
2019-02-08T16:44:39.863Z,95426.45
2019-02-08T16:47:11.653Z,95428.03
2019-02-08T16:49:43.317Z,95422.70
2019-02-08T16:52:14.709Z,95420.11
2019-02-08T16:54:47.189Z,95425.45
2019-02-08T16:57:19.057Z,95422.96
2019-02-08T16:59:50.862Z,95423.80
2019-02-08T17:02:22.500Z,95426.73
2019-02-08T17:04:54.347Z,95423.62
2019-02-08T17:07:26.004Z,95425.52
2019-02-08T17:09:57.573Z,95426.19
2019-02-08T17:12:29.270Z,95430.03
2019-02-08T17:15:00.679Z,95437.75
2019-02-08T17:17:32.437Z,95445.67
2019-02-08T17:20:05.550Z,95434.09
2019-02-08T17:22:37.050Z,95439.33
2019-02-08T17:25:08.619Z,95438.85
2019-02-08T17:27:40.088Z,95448.68
2019-02-08T17:30:14.216Z,95448.89
2019-02-08T17:32:46.048Z,95452.00
2019-02-08T17:35:18.452Z,95453.28
2019-02-08T17:37:50.216Z,95448.61
2019-02-08T17:40:24.082Z,95451.55
2019-02-08T17:42:55.851Z,95451.91
2019-02-08T17:45:27.507Z,95462.02
2019-02-08T17:48:00.771Z,95461.00
2019-02-08T17:50:32.387Z,95464.70
2019-02-08T17:53:04.409Z,95459.45
2019-02-08T17:55:36.205Z,95462.41
2019-02-08T17:58:08.075Z,95467.73
2019-02-08T18:01:00.443Z,95470.94
2019-02-08T18:03:32.212Z,95470.48
2019-02-08T18:06:03.636Z,95473.51
2019-02-08T18:08:35.140Z,95471.58
2019-02-08T18:11:06.648Z,95474.63
2019-02-08T18:13:38.019Z,95475.27
2019-02-08T18:16:09.463Z,95480.59
2019-02-08T18:18:41.014Z,95478.84
2019-02-08T18:21:13.139Z,95486.20
2019-02-08T18:23:44.679Z,95487.39
2019-02-08T18:26:15.917Z,95485.64
2019-02-08T18:28:47.313Z,95484.55
2019-02-08T18:31:18.567Z,95489.42
2019-02-08T18:33:49.858Z,95487.48
2019-02-08T18:36:21.210Z,95488.48
2019-02-08T18:38:52.541Z,95482.16
2019-02-08T18:41:24.111Z,95476.09
2019-02-08T18:43:55.666Z,95483.89
2019-02-08T18:46:27.351Z,95485.75
2019-02-08T18:48:59.047Z,95482.05
2019-02-08T18:51:30.371Z,95485.55
2019-02-08T18:54:01.744Z,95479.64
2019-02-08T18:56:33.127Z,95481.89
2019-02-08T18:59:04.509Z,95488.67
2019-02-08T19:01:35.856Z,95484.08
2019-02-08T19:04:07.391Z,95490.88
2019-02-08T19:06:39.079Z,95499.23
2019-02-08T19:09:10.814Z,95495.73
2019-02-08T19:11:43.038Z,95498.88
2019-02-08T19:14:14.875Z,95506.69
2019-02-08T19:16:46.679Z,95505.32
2019-02-08T19:19:19.734Z,95493.82
2019-02-08T19:21:51.298Z,95501.80
2019-02-08T19:24:23.014Z,95500.62
2019-02-08T19:26:54.395Z,95509.91
2019-02-08T19:29:26.021Z,95503.91
2019-02-08T19:31:57.477Z,95516.88
2019-02-08T19:34:29.060Z,95515.78
2019-02-08T19:37:00.788Z,95513.31
2019-02-08T19:39:32.754Z,95520.30
2019-02-08T19:42:04.531Z,95526.56
2019-02-08T19:44:36.200Z,95521.21
2019-02-08T19:47:07.678Z,95527.09
2019-02-08T19:49:39.064Z,95531.49
2019-02-08T19:52:10.306Z,95533.53
2019-02-08T19:54:41.645Z,95531.86
2019-02-08T19:57:13.381Z,95533.14
2019-02-08T19:59:44.710Z,95525.95
2019-02-08T20:02:16.465Z,95524.86
2019-02-08T20:04:48.118Z,95532.95
2019-02-08T20:07:19.488Z,95527.44
2019-02-08T20:09:51.048Z,95526.91
2019-02-08T20:12:22.449Z,95535.19
2019-02-08T20:14:54.842Z,95540.99
2019-02-08T20:17:26.601Z,95541.52
2019-02-08T20:19:58.143Z,95532.98
2019-02-08T20:22:29.656Z,95534.19
2019-02-08T20:25:00.886Z,95538.31
2019-02-08T20:27:32.650Z,95538.12
2019-02-08T20:30:05.399Z,95538.52
2019-02-08T20:32:37.138Z,95543.20
2019-02-08T20:35:10.834Z,95539.51
2019-02-08T20:37:42.440Z,95544.75
2019-02-08T20:40:16.355Z,95533.61
2019-02-08T20:42:48.189Z,95538.84
2019-02-08T20:45:22.134Z,95539.67
2019-02-08T20:47:53.975Z,95536.08
2019-02-08T20:50:26.289Z,95538.85
2019-02-08T20:52:58.913Z,95541.79
2019-02-08T20:55:31.291Z,95534.99
2019-02-08T20:58:03.495Z,95530.30
2019-02-08T21:00:39.268Z,95524.78
2019-02-08T21:03:15.312Z,95534.73
2019-02-08T21:05:48.263Z,95527.47
2019-02-08T21:08:21.307Z,95530.38
2019-02-08T21:10:52.653Z,95525.23
2019-02-08T21:13:24.033Z,95529.84
2019-02-08T21:15:55.657Z,95526.71
2019-02-08T21:18:27.280Z,95527.44
2019-02-08T21:20:58.894Z,95525.49
2019-02-08T21:23:30.388Z,95527.04
2019-02-08T21:26:02.029Z,95517.88
2019-02-08T21:28:34.056Z,95523.05
2019-02-08T21:31:05.673Z,95532.42
2019-02-08T21:33:37.152Z,95530.38
2019-02-08T21:36:08.587Z,95532.84
2019-02-08T21:38:40.119Z,95534.75
2019-02-08T21:41:11.456Z,95541.84
2019-02-08T21:43:43.000Z,95533.83
2019-02-08T21:46:14.997Z,95531.91
2019-02-08T21:48:46.454Z,95539.18
2019-02-08T21:51:17.766Z,95542.78
2019-02-08T21:53:49.334Z,95538.85
2019-02-08T21:56:20.989Z,95540.67
2019-02-08T21:58:52.652Z,95544.09
2019-02-08T22:01:24.580Z,95544.76
2019-02-08T22:03:56.125Z,95542.18
2019-02-08T22:06:27.644Z,95544.39
2019-02-08T22:08:59.342Z,95545.91
2019-02-08T22:11:32.432Z,95543.80
2019-02-08T22:14:04.140Z,95546.77
2019-02-08T22:16:35.772Z,95549.63
2019-02-08T22:19:07.034Z,95540.52
2019-02-08T22:21:38.742Z,95547.33
2019-02-08T22:24:10.232Z,95548.42
2019-02-08T22:26:42.064Z,95548.88
2019-02-08T22:29:14.338Z,95552.64
2019-02-08T22:31:46.048Z,95550.06
2019-02-08T22:34:17.336Z,95552.18
2019-02-08T22:36:48.748Z,95548.88
2019-02-08T22:39:20.184Z,95551.09
2019-02-08T22:41:51.717Z,95549.91
2019-02-08T22:44:23.332Z,95546.86
2019-02-08T22:46:54.925Z,95549.41
2019-02-08T22:49:26.242Z,95548.78
2019-02-08T22:51:57.704Z,95549.31
2019-02-08T22:54:29.305Z,95551.78
2019-02-08T22:57:00.526Z,95553.36
2019-02-08T22:59:32.740Z,95550.49
2019-02-08T23:02:06.031Z,95550.84
2019-02-08T23:04:37.445Z,95553.32
2019-02-08T23:07:09.359Z,95552.66
2019-02-08T23:09:40.673Z,95550.75
2019-02-08T23:12:12.448Z,95545.97
2019-02-08T23:14:44.195Z,95549.45
2019-02-08T23:17:15.662Z,95543.23
2019-02-08T23:19:47.092Z,95537.05
2019-02-08T23:22:18.725Z,95539.31
2019-02-08T23:24:50.347Z,95540.70
2019-02-08T23:27:21.632Z,95536.95
2019-02-08T23:29:53.277Z,95536.75
2019-02-08T23:32:24.934Z,95539.83
2019-02-08T23:34:56.695Z,95538.88
2019-02-08T23:37:28.328Z,95539.66
2019-02-08T23:39:59.956Z,95544.86
2019-02-08T23:42:31.266Z,95541.94
2019-02-08T23:45:02.858Z,95540.64
2019-02-08T23:47:34.372Z,95537.81
2019-02-08T23:50:06.945Z,95537.23
2019-02-08T23:52:38.544Z,95537.48
2019-02-08T23:55:10.310Z,95531.90
2019-02-08T23:57:41.906Z,95529.19
